Time;durP1;ratioP1;P1;durP2;ratioP2;P2;SDS_P1;SDS_P2;PMS_P1;PMS_P2;Temp;Humidity;BMP_temperature;BMP_pressure;BME280_temperature;BME280_humidity;BME280_pressure;Samples;Min_cycle;Max_cycle;Signal;HPM_P1;HPM_P2
2022/03/09 00:00:16;;;;;;;;;8.75;8.75;;;;;16.06;40.71;102133.19;5031785;28;8787;-72
2022/03/09 00:02:42;;;;;;;;;7.00;6.75;;;;;16.06;40.69;102128.81;5031106;28;8848;-74
2022/03/09 00:05:08;;;;;;;;;8.75;7.50;;;;;16.06;40.70;102136.72;5031954;28;8802;-75
2022/03/09 00:07:33;;;;;;;;;5.75;5.75;;;;;16.04;40.79;102140.19;5031462;28;9567;-74
2022/03/09 00:09:59;;;;;;;;;7.00;6.00;;;;;16.02;40.47;102136.63;5030890;28;8783;-73
2022/03/09 00:12:24;;;;;;;;;6.75;6.25;;;;;15.91;40.67;102121.50;5031295;28;8857;-73
2022/03/09 00:14:49;;;;;;;;;7.00;6.75;;;;;16.05;40.51;102148.09;5031567;28;8807;-74
2022/03/09 00:17:15;;;;;;;;;7.75;7.75;;;;;16.03;40.44;102148.94;5031048;28;9530;-74
2022/03/09 00:19:40;;;;;;;;;7.50;5.75;;;;;16.00;40.16;102149.78;5038919;28;8787;-74
2022/03/09 00:22:05;;;;;;;;;7.50;7.50;;;;;16.01;40.58;102156.81;5038352;28;9221;-73
2022/03/09 00:24:32;;;;;;;;;7.00;7.00;;;;;16.03;40.40;102157.75;5030638;28;9917;-74
2022/03/09 00:26:59;;;;;;;;;7.00;7.00;;;;;16.01;40.27;102158.56;5031094;28;8799;-74
2022/03/09 00:29:25;;;;;;;;;6.00;6.00;;;;;16.02;40.32;102166.50;5031131;28;9959;-72
2022/03/09 00:31:50;;;;;;;;;8.25;7.00;;;;;15.95;40.23;102168.13;5030626;28;9970;-73
2022/03/09 00:34:15;;;;;;;;;8.50;8.50;;;;;15.95;40.32;102176.03;5031339;28;8806;-73
2022/03/09 00:36:40;;;;;;;;;6.75;6.75;;;;;15.99;40.04;102165.53;5030752;28;8909;-73
2022/03/09 00:39:06;;;;;;;;;5.75;5.00;;;;;16.00;39.90;102170.84;5030368;28;8807;-74
2022/03/09 00:41:31;;;;;;;;;6.25;4.50;;;;;15.93;40.13;102166.31;5030631;28;8795;-73
2022/03/09 00:43:56;;;;;;;;;8.00;8.00;;;;;15.98;40.18;102164.66;5031084;28;8771;-75
2022/03/09 00:46:22;;;;;;;;;7.00;6.00;;;;;15.95;40.23;102164.59;5030313;28;8903;-74
2022/03/09 00:48:47;;;;;;;;;8.00;6.00;;;;;15.96;40.01;102171.66;5030804;28;8866;-74
2022/03/09 00:51:13;;;;;;;;;7.00;7.00;;;;;15.94;40.00;102181.25;5031016;28;8771;-73
2022/03/09 00:53:38;;;;;;;;;6.25;6.25;;;;;15.95;39.84;102189.19;5029763;28;8918;-74
2022/03/09 00:56:04;;;;;;;;;10.75;9.00;;;;;15.95;39.81;102188.31;5030784;28;8806;-74
2022/03/09 00:58:29;;;;;;;;;6.00;6.00;;;;;15.90;40.09;102175.03;5030684;28;8775;-73
2022/03/09 01:00:57;;;;;;;;;8.00;6.50;;;;;15.95;39.64;102181.28;5029912;28;8787;-74
2022/03/09 01:03:22;;;;;;;;;7.25;6.50;;;;;15.92;39.75;102173.34;5030663;28;8779;-73
2022/03/09 01:05:47;;;;;;;;;7.00;6.00;;;;;15.93;39.93;102172.44;5029812;28;9867;-73
2022/03/09 01:08:13;;;;;;;;;7.75;7.00;;;;;15.92;39.90;102175.06;5035642;28;8905;-73
2022/03/09 01:10:38;;;;;;;;;7.00;7.00;;;;;15.91;39.59;102176.81;5042873;28;8764;-74
2022/03/09 01:13:03;;;;;;;;;8.50;8.00;;;;;15.89;39.70;102177.66;5033822;28;8807;-76
2022/03/09 01:15:29;;;;;;;;;7.00;7.00;;;;;15.85;39.60;102174.06;5030843;28;9645;-73
2022/03/09 01:17:54;;;;;;;;;6.00;6.00;;;;;15.92;39.79;102170.69;5030680;28;8888;-72
2022/03/09 01:20:19;;;;;;;;;7.25;7.25;;;;;15.93;40.10;102172.44;5030123;28;8783;-73
2022/03/09 01:22:45;;;;;;;;;9.00;7.00;;;;;15.92;39.88;102165.44;5030194;28;8775;-73
2022/03/09 01:25:10;;;;;;;;;6.50;6.50;;;;;15.92;40.31;102165.44;5030812;28;8885;-74
2022/03/09 01:27:36;;;;;;;;;6.00;6.00;;;;;15.93;39.98;102177.72;5029734;28;8775;-75
2022/03/09 01:30:01;;;;;;;;;7.00;7.00;;;;;15.91;40.23;102175.91;5030762;28;8775;-74
2022/03/09 01:32:27;;;;;;;;;7.00;7.00;;;;;15.88;39.94;102173.22;5030080;28;8863;-73
2022/03/09 01:34:52;;;;;;;;;6.50;6.50;;;;;15.87;39.87;102169.69;5029781;28;8795;-74
2022/03/09 01:37:17;;;;;;;;;8.50;7.75;;;;;15.85;39.78;102176.69;5030696;28;8815;-73
2022/03/09 01:39:43;;;;;;;;;7.75;7.75;;;;;15.92;39.92;102175.97;5029951;28;8784;-74
2022/03/09 01:42:08;;;;;;;;;8.00;7.50;;;;;15.89;39.81;102175.91;5030011;28;8897;-74
2022/03/09 01:44:34;;;;;;;;;6.50;6.50;;;;;15.85;39.57;102168.78;5030354;28;8818;-72
2022/03/09 01:46:59;;;;;;;;;7.25;5.50;;;;;15.92;39.62;102175.06;5030409;28;8778;-74
2022/03/09 01:49:28;;;;;;;;;8.00;7.00;;;;;15.87;39.54;102169.69;5029400;28;8874;-73
2022/03/09 01:51:58;;;;;;;;;7.25;7.25;;;;;15.89;40.01;102168.00;5030701;28;8783;-74
2022/03/09 01:54:24;;;;;;;;;5.00;5.00;;;;;15.88;39.45;102170.59;5030063;28;10690;-73
2022/03/09 01:56:49;;;;;;;;;6.00;6.00;;;;;15.87;39.66;102161.81;5030592;28;10136;-73
2022/03/09 01:59:16;;;;;;;;;6.25;6.00;;;;;15.82;39.44;102147.63;5041178;28;9865;-74
2022/03/09 02:01:43;;;;;;;;;6.50;5.50;;;;;15.84;39.35;102152.94;5039534;28;8784;-73
2022/03/09 02:04:09;;;;;;;;;6.25;6.25;;;;;15.85;39.29;102153.00;5030403;28;9772;-73
2022/03/09 02:06:36;;;;;;;;;6.50;6.50;;;;;15.84;39.34;102147.69;5029813;28;10115;-74
2022/03/09 02:11:48;;;;;;;;;8.00;8.00;;;;;15.82;39.23;102136.25;5029616;28;10012;-73
2022/03/09 02:14:38;;;;;;;;;6.00;6.00;;;;;15.86;39.33;102143.31;5029858;28;9878;-74
2022/03/09 02:17:16;;;;;;;;;12.00;8.00;;;;;15.88;39.35;102147.78;5029268;28;8775;-74
2022/03/09 02:19:43;;;;;;;;;6.00;6.00;;;;;15.80;39.29;102148.47;5030829;28;10041;-74
2022/03/09 02:22:32;;;;;;;;;6.50;6.25;;;;;15.83;39.24;102148.53;5033892;28;10056;-73
2022/03/09 02:24:58;;;;;;;;;7.00;6.50;;;;;15.84;39.08;102155.59;5032903;28;9637;-73
2022/03/09 02:27:23;;;;;;;;;7.00;6.75;;;;;15.83;39.18;102154.69;5033556;28;9971;-74
2022/03/09 02:29:50;;;;;;;;;9.75;8.75;;;;;15.79;39.15;102152.84;5032907;28;9475;-74
2022/03/09 02:32:16;;;;;;;;;9.75;9.00;;;;;15.84;39.35;102145.06;5032867;28;8814;-74
2022/03/09 02:34:42;;;;;;;;;7.50;7.50;;;;;15.81;38.99;102148.50;5032962;28;10763;-75
2022/03/09 02:37:07;;;;;;;;;5.00;4.00;;;;;15.80;39.36;102146.72;5033521;28;10022;-74
2022/03/09 02:39:36;;;;;;;;;7.50;7.00;;;;;15.78;39.02;102142.31;5032173;28;8852;-73
2022/03/09 02:42:08;;;;;;;;;7.00;7.00;;;;;15.80;39.03;102151.09;5033254;28;8806;-74
2022/03/09 02:44:33;;;;;;;;;4.50;4.50;;;;;15.80;38.94;102145.84;5043190;28;10087;-73
2022/03/09 02:46:59;;;;;;;;;6.50;4.50;;;;;15.79;38.91;102151.94;5041866;28;10091;-73
2022/03/09 02:49:24;;;;;;;;;7.00;7.00;;;;;15.76;38.86;102157.16;5051779;28;8783;-73
2022/03/09 02:51:50;;;;;;;;;6.25;6.25;;;;;15.73;38.81;102158.00;5048201;28;8799;-74
2022/03/09 02:54:15;;;;;;;;;8.00;8.00;;;;;15.79;38.98;102154.59;5033888;28;8810;-73
2022/03/09 02:56:43;;;;;;;;;8.50;7.75;;;;;15.75;38.93;102148.38;5033201;28;8782;-74
2022/03/09 02:59:09;;;;;;;;;6.50;6.50;;;;;15.77;38.85;102151.94;5032283;28;8783;-73
2022/03/09 03:01:34;;;;;;;;;9.00;7.50;;;;;15.78;38.79;102143.16;5032833;28;9971;-73
2022/03/09 03:04:02;;;;;;;;;6.00;6.00;;;;;15.73;38.86;102139.56;5033067;28;9524;-73
2022/03/09 03:06:28;;;;;;;;;7.00;7.00;;;;;15.75;38.86;102143.09;5031994;28;8776;-73
2022/03/09 03:08:53;;;;;;;;;6.75;5.00;;;;;15.75;39.08;102145.72;5032933;28;10122;-73
2022/03/09 03:11:18;;;;;;;;;8.00;7.25;;;;;15.72;38.78;102144.78;5032724;28;8801;-73
2022/03/09 03:13:45;;;;;;;;;8.00;7.00;;;;;15.75;38.64;102151.00;5031540;28;9594;-74
2022/03/09 03:16:11;;;;;;;;;7.00;6.75;;;;;15.71;38.73;102135.13;5032816;28;8824;-73
2022/03/09 03:18:42;;;;;;;;;6.25;6.25;;;;;15.70;38.63;102136.88;5032273;28;10586;-73
2022/03/09 03:21:11;;;;;;;;;7.25;7.00;;;;;15.74;39.09;102137.81;5031948;28;10842;-74
2022/03/09 03:23:36;;;;;;;;;12.00;10.00;;;;;15.70;38.89;102133.34;5032476;28;9967;-74
2022/03/09 03:26:06;;;;;;;;;6.00;6.00;;;;;15.71;39.03;102127.22;5032316;28;10006;-74
2022/03/09 03:28:32;;;;;;;;;6.25;6.25;;;;;15.74;38.84;102135.19;5031746;28;8763;-72
2022/03/09 03:30:58;;;;;;;;;8.00;6.50;;;;;15.74;39.04;102133.44;5032400;28;10969;-73
2022/03/09 03:33:24;;;;;;;;;7.50;7.50;;;;;15.74;38.90;102138.72;5032201;28;10006;-73
2022/03/09 03:35:50;;;;;;;;;7.00;7.00;;;;;15.70;39.06;102139.50;5034834;28;8791;-74
2022/03/09 03:38:18;;;;;;;;;10.00;9.00;;;;;15.76;38.91;102144.00;5044881;28;8775;-74
2022/03/09 03:40:44;;;;;;;;;7.25;6.50;;;;;15.72;38.73;102139.53;5039220;28;8768;-74
2022/03/09 03:43:09;;;;;;;;;4.00;4.00;;;;;15.66;38.81;102124.50;5032474;28;10899;-73
2022/03/09 03:45:35;;;;;;;;;7.00;7.00;;;;;15.70;38.78;102135.97;5032072;28;8787;-74
2022/03/09 03:48:00;;;;;;;;;8.00;8.00;;;;;15.68;38.89;102130.66;5031474;28;8763;-73
2022/03/09 03:50:28;;;;;;;;;6.00;6.00;;;;;15.67;38.77;102138.56;5031792;28;9523;-73
2022/03/09 03:52:53;;;;;;;;;8.00;7.00;;;;;15.74;38.60;102132.56;5031862;28;8807;-73
2022/03/09 03:55:19;;;;;;;;;9.25;8.00;;;;;15.65;38.76;102127.09;5030977;28;10119;-74
2022/03/09 03:57:44;;;;;;;;;8.25;7.75;;;;;15.66;38.73;102129.75;5031648;28;8791;-74
2022/03/09 04:00:11;;;;;;;;;3.75;3.00;;;;;15.65;38.63;102127.97;5031709;28;8819;-74
2022/03/09 04:02:37;;;;;;;;;5.00;5.00;;;;;15.64;38.70;102127.94;5030667;28;8807;-77
2022/03/09 04:05:06;;;;;;;;;4.00;4.00;;;;;15.68;38.59;102137.66;5032046;28;10094;-73
2022/03/09 04:07:33;;;;;;;;;8.00;8.00;;;;;15.62;38.91;102133.19;5031266;28;11470;-73
2022/03/09 04:09:58;;;;;;;;;7.50;7.50;;;;;15.64;38.69;102123.56;5031025;28;10026;-73
2022/03/09 04:12:24;;;;;;;;;6.50;6.50;;;;;15.65;38.69;102132.34;5031354;28;10065;-73
2022/03/09 04:14:50;;;;;;;;;6.50;5.00;;;;;15.65;38.70;102127.09;5031644;28;9500;-74
2022/03/09 04:17:16;;;;;;;;;11.00;7.25;;;;;15.65;38.53;102129.72;5030930;28;8837;-74
2022/03/09 04:19:46;;;;;;;;;9.00;7.25;;;;;15.63;38.40;102124.44;5031172;28;9850;-74
2022/03/09 04:22:14;;;;;;;;;7.00;6.50;;;;;15.62;38.51;102127.03;5031171;28;8768;-73
2022/03/09 04:24:39;;;;;;;;;8.00;7.25;;;;;15.62;38.34;102133.19;5031954;28;9843;-73
2022/03/09 04:27:05;;;;;;;;;6.00;6.00;;;;;15.67;38.29;102133.28;5043369;28;10023;-73
2022/03/09 04:29:30;;;;;;;;;6.50;6.50;;;;;15.67;38.29;102126.25;5039723;28;8797;-74
2022/03/09 04:32:02;;;;;;;;;5.75;3.50;;;;;15.67;38.32;102138.56;5030681;28;8818;-74
2022/03/09 04:34:27;;;;;;;;;11.00;8.00;;;;;15.64;38.22;102136.72;5031222;28;8818;-72
2022/03/09 04:36:52;;;;;;;;;7.25;7.00;;;;;15.65;38.12;102127.09;5030343;28;9852;-73
2022/03/09 04:39:18;;;;;;;;;9.00;8.00;;;;;15.64;38.32;102127.94;5031229;28;8973;-73
2022/03/09 04:41:46;;;;;;;;;4.00;4.00;;;;;15.64;38.33;102130.56;5030946;28;9392;-73
2022/03/09 04:44:11;;;;;;;;;5.00;5.00;;;;;15.58;38.21;102122.53;5030342;28;8776;-74
2022/03/09 04:46:36;;;;;;;;;6.75;6.50;;;;;15.59;38.15;102134.88;5030968;28;9799;-73
2022/03/09 04:49:05;;;;;;;;;8.00;7.00;;;;;15.60;38.08;102129.59;5031103;28;8898;-73
2022/03/09 04:51:30;;;;;;;;;4.00;4.00;;;;;15.60;38.20;102133.97;5030008;28;8780;-73
2022/03/09 04:53:55;;;;;;;;;6.75;6.75;;;;;15.59;38.15;102134.88;5031137;28;9913;-74
2022/03/09 04:56:20;;;;;;;;;7.00;6.00;;;;;15.60;37.96;102134.88;5031129;28;8806;-72
2022/03/09 04:58:46;;;;;;;;;6.25;6.25;;;;;15.62;37.91;102129.66;5030241;28;9523;-74
2022/03/09 05:01:11;;;;;;;;;7.00;7.00;;;;;15.59;37.94;102138.38;5031102;28;8791;-73
2022/03/09 05:03:37;;;;;;;;;8.00;8.00;;;;;15.59;37.95;102141.03;5030512;28;8849;-73
2022/03/09 05:06:03;;;;;;;;;5.00;5.00;;;;;15.59;37.84;102134.88;5030023;28;8953;-74
2022/03/09 05:08:28;;;;;;;;;7.25;6.75;;;;;15.58;37.84;102141.88;5030704;28;9850;-73
2022/03/09 05:10:54;;;;;;;;;4.50;4.50;;;;;15.58;37.90;102146.25;5030781;28;10114;-73
2022/03/09 05:13:20;;;;;;;;;8.25;7.50;;;;;15.60;38.08;102144.50;5029877;28;8831;-74
2022/03/09 05:15:46;;;;;;;;;6.50;6.50;;;;;15.50;37.86;102134.66;5051935;28;8877;-73
2022/03/09 05:18:14;;;;;;;;;6.25;5.00;;;;;15.54;37.83;102141.75;5054502;28;9894;-73
2022/03/09 05:20:40;;;;;;;;;6.50;6.50;;;;;15.56;37.47;102146.19;5041250;28;8787;-73
2022/03/09 05:23:05;;;;;;;;;7.00;7.00;;;;;15.55;37.85;102154.97;5030774;28;9854;-74
2022/03/09 05:25:30;;;;;;;;;7.00;7.00;;;;;15.58;37.83;102157.66;5030417;28;8803;-73
2022/03/09 05:27:56;;;;;;;;;7.00;7.00;;;;;15.60;37.74;102147.13;5030222;28;8901;-74
2022/03/09 05:30:21;;;;;;;;;7.00;7.00;;;;;15.57;37.63;102150.59;5030877;28;8804;-73
2022/03/09 05:32:47;;;;;;;;;8.00;7.00;;;;;15.61;37.59;102148.94;5030350;28;8834;-74
2022/03/09 05:35:12;;;;;;;;;5.50;4.50;;;;;15.57;37.66;102144.44;5029646;28;8783;-72
2022/03/09 05:37:43;;;;;;;;;6.00;6.00;;;;;15.57;37.79;102145.34;5030692;28;8771;-74
2022/03/09 05:40:09;;;;;;;;;8.00;7.00;;;;;15.56;37.74;102142.69;5029698;28;8814;-73
2022/03/09 05:42:35;;;;;;;;;6.00;6.00;;;;;15.47;37.73;102133.72;5030438;28;9927;-73
2022/03/09 05:45:00;;;;;;;;;4.50;4.00;;;;;15.54;37.77;102157.56;5030213;28;10623;-73
2022/03/09 05:47:26;;;;;;;;;7.50;7.00;;;;;15.57;37.82;102154.97;5029235;28;8791;-74
2022/03/09 05:49:51;;;;;;;;;6.00;6.00;;;;;15.54;37.72;102157.56;5030276;28;8783;-73
2022/03/09 05:52:19;;;;;;;;;7.75;6.00;;;;;15.58;37.54;102165.56;5030353;28;8839;-74
2022/03/09 05:54:45;;;;;;;;;4.00;4.00;;;;;15.51;38.55;102165.38;5030740;28;8783;-76
2022/03/09 05:57:12;;;;;;;;;6.50;6.00;;;;;15.64;39.83;102157.78;5034407;28;9943;-75
2022/03/09 05:59:37;;;;;;;;;6.50;6.25;;;;;15.80;42.91;102172.16;5033851;28;9930;-75
2022/03/09 06:02:03;;;;;;;;;8.25;7.25;;;;;15.95;46.06;102183.94;5033882;28;9989;-76
2022/03/09 06:04:31;;;;;;;;;8.50;8.50;;;;;16.03;46.51;102183.19;5047463;28;9043;-79
2022/03/09 06:06:56;;;;;;;;;6.00;6.00;;;;;16.06;48.90;102175.34;5051964;28;8802;-82
2022/03/09 06:09:22;;;;;;;;;9.00;8.00;;;;;16.14;52.72;102168.50;5045398;28;9780;-76
2022/03/09 06:11:53;;;;;;;;;6.00;6.00;;;;;16.22;50.77;102180.97;5038781;28;8893;-75
2022/03/09 06:14:18;;;;;;;;;8.00;8.00;;;;;16.20;51.38;102176.50;5034168;28;8929;-75
2022/03/09 06:16:43;;;;;;;;;8.00;8.00;;;;;16.19;51.88;102175.66;5032901;28;11205;-75
2022/03/09 06:19:09;;;;;;;;;7.25;5.25;;;;;16.28;53.61;102182.81;5033761;28;8791;-74
2022/03/09 06:21:34;;;;;;;;;9.00;7.00;;;;;16.23;54.87;102188.00;5033245;28;8791;-73
2022/03/09 06:23:59;;;;;;;;;7.50;5.50;;;;;16.19;55.95;102183.56;5033028;28;8857;-73
2022/03/09 06:26:24;;;;;;;;;8.75;7.75;;;;;16.12;55.50;102183.41;5033133;28;8780;-74
2022/03/09 06:28:50;;;;;;;;;10.50;9.50;;;;;16.11;54.88;102181.59;5033680;28;8767;-72
2022/03/09 06:31:15;;;;;;;;;5.00;5.00;;;;;16.10;55.26;102191.25;5032707;28;8791;-73
2022/03/09 06:33:40;;;;;;;;;7.50;7.50;;;;;16.08;54.62;102189.47;5032869;28;8815;-73
2022/03/09 06:36:08;;;;;;;;;8.50;6.75;;;;;16.00;54.54;102178.75;5033715;28;8779;-73
2022/03/09 06:38:33;;;;;;;;;7.00;4.50;;;;;16.05;53.59;102185.00;5032765;28;8807;-74
2022/03/09 06:40:59;;;;;;;;;8.00;7.25;;;;;16.07;53.91;102188.56;5033519;28;9769;-73
2022/03/09 06:43:24;;;;;;;;;6.50;6.50;;;;;16.06;53.71;102185.88;5032665;28;8775;-74
2022/03/09 06:45:49;;;;;;;;;8.25;7.00;;;;;16.02;53.07;102181.41;5033414;28;8775;-74
2022/03/09 06:48:15;;;;;;;;;9.00;4.00;;;;;16.00;52.28;102185.78;5033521;28;8775;-74
2022/03/09 06:50:40;;;;;;;;;6.75;6.25;;;;;16.02;52.34;102187.56;5032630;28;8780;-75
2022/03/09 06:53:05;;;;;;;;;6.00;5.00;;;;;16.03;52.12;102193.72;5037385;28;8815;-74
2022/03/09 06:55:31;;;;;;;;;6.75;6.00;;;;;16.03;52.41;102199.00;5046420;28;9508;-75
2022/03/09 06:57:56;;;;;;;;;7.75;6.50;;;;;15.99;51.63;102191.88;5039632;28;8803;-74
2022/03/09 07:00:22;;;;;;;;;5.00;5.00;;;;;15.95;51.70;102190.94;5033098;28;8787;-73
2022/03/09 07:02:47;;;;;;;;;7.00;5.25;;;;;15.99;51.71;102203.31;5032744;28;8799;-74
2022/03/09 07:05:14;;;;;;;;;7.00;7.00;;;;;15.96;50.71;102200.63;5032195;28;8783;-74
2022/03/09 07:07:40;;;;;;;;;8.50;6.50;;;;;15.92;51.32;102198.78;5032594;28;8792;-75
2022/03/09 07:10:10;;;;;;;;;8.00;7.00;;;;;15.95;50.80;102197.09;5033052;28;9619;-74
2022/03/09 07:12:37;;;;;;;;;5.00;4.00;;;;;15.87;50.36;102198.66;5031627;28;10782;-74
2022/03/09 07:15:05;;;;;;;;;6.50;6.50;;;;;15.96;50.91;102200.63;5032817;28;9622;-74
2022/03/09 07:17:31;;;;;;;;;5.25;5.25;;;;;15.95;49.99;102204.09;5032455;28;9814;-74
2022/03/09 07:19:56;;;;;;;;;7.25;5.75;;;;;15.95;49.87;102196.19;5032007;28;9892;-74
2022/03/09 07:22:22;;;;;;;;;8.50;6.25;;;;;15.94;49.75;102208.47;5032645;28;8791;-74
2022/03/09 07:24:47;;;;;;;;;7.00;7.00;;;;;15.90;49.41;102197.84;5032174;28;8791;-74
2022/03/09 07:27:13;;;;;;;;;4.00;3.00;;;;;15.97;49.53;102198.88;5031744;28;9753;-74
2022/03/09 07:29:38;;;;;;;;;5.50;5.50;;;;;15.96;49.35;102208.53;5032067;28;8795;-74
2022/03/09 07:32:04;;;;;;;;;4.00;4.00;;;;;15.94;49.12;102215.50;5032187;28;8801;-73
2022/03/09 07:34:29;;;;;;;;;5.50;5.50;;;;;15.91;48.84;102218.94;5031596;28;8763;-74
2022/03/09 07:36:58;;;;;;;;;6.00;6.00;;;;;15.92;48.59;102210.22;5032427;28;8806;-75
2022/03/09 07:39:28;;;;;;;;;7.00;7.00;;;;;15.93;48.48;102213.72;5032443;28;8865;-74
2022/03/09 07:41:55;;;;;;;;;7.75;6.75;;;;;15.91;48.35;102216.31;5033718;28;9702;-73
2022/03/09 07:44:21;;;;;;;;;6.00;5.25;;;;;15.93;48.20;102216.38;5050106;28;9855;-74
2022/03/09 07:46:47;;;;;;;;;9.00;9.00;;;;;15.94;48.23;102224.28;5033278;28;9899;-74
2022/03/09 07:49:13;;;;;;;;;5.50;5.50;;;;;15.90;47.83;102219.81;5032713;28;9683;-74
2022/03/09 07:51:41;;;;;;;;;3.00;3.00;;;;;15.90;48.29;102216.28;5031952;28;8813;-74
2022/03/09 07:54:07;;;;;;;;;5.50;5.50;;;;;15.89;47.82;102222.41;5031331;28;8949;-74
2022/03/09 07:56:34;;;;;;;;;7.00;7.00;;;;;15.86;47.79;102204.78;5031646;28;9901;-73
2022/03/09 07:59:08;;;;;;;;;4.00;4.00;;;;;15.94;47.82;102220.75;5032188;28;9487;-73
2022/03/09 08:01:37;;;;;;;;;5.25;4.25;;;;;15.93;47.42;102221.63;5030675;28;9690;-75
2022/03/09 08:04:02;;;;;;;;;4.50;4.50;;;;;15.91;47.36;102218.06;5031973;28;9710;-74
2022/03/09 08:06:28;;;;;;;;;3.00;3.00;;;;;15.92;47.39;102218.09;5031502;28;9695;-73
2022/03/09 08:08:56;;;;;;;;;5.00;5.00;;;;;15.92;47.24;102217.22;5031363;28;8795;-74
2022/03/09 08:11:22;;;;;;;;;7.50;7.50;;;;;15.92;47.42;102223.38;5031919;28;8775;-74
2022/03/09 08:13:48;;;;;;;;;4.50;3.50;;;;;15.91;47.03;102218.94;5031340;28;9797;-74
2022/03/09 08:16:13;;;;;;;;;5.75;5.75;;;;;15.90;46.86;102213.63;5030812;28;9881;-74
2022/03/09 08:18:38;;;;;;;;;5.50;5.50;;;;;15.89;46.63;102220.69;5030588;28;8768;-74
2022/03/09 08:21:04;;;;;;;;;4.50;4.25;;;;;15.88;46.45;102212.72;5031687;28;8791;-73
2022/03/09 08:23:29;;;;;;;;;7.00;6.00;;;;;15.96;46.69;102221.69;5030681;28;8783;-74
2022/03/09 08:25:54;;;;;;;;;8.00;8.00;;;;;15.97;46.65;102223.47;5031355;28;8902;-74
2022/03/09 08:28:20;;;;;;;;;5.00;5.00;;;;;15.97;46.59;102225.22;5031540;28;8775;-74
2022/03/09 08:30:45;;;;;;;;;6.00;6.00;;;;;15.97;46.38;102228.75;5030455;28;8783;-74
2022/03/09 08:33:11;;;;;;;;;6.00;6.00;;;;;15.96;46.27;102226.97;5031642;28;9500;-74
2022/03/09 08:35:37;;;;;;;;;4.00;4.00;;;;;15.97;46.50;102226.13;5035609;28;9527;-75
2022/03/09 08:38:02;;;;;;;;;6.25;6.25;;;;;15.99;46.32;102224.38;5032738;28;8869;-74
2022/03/09 08:40:28;;;;;;;;;6.75;6.00;;;;;15.97;46.31;102228.75;5031400;28;10577;-74
2022/03/09 08:42:53;;;;;;;;;6.50;4.00;;;;;16.02;45.85;102239.34;5031530;28;8783;-74
2022/03/09 08:45:18;;;;;;;;;7.00;6.00;;;;;16.00;45.88;102241.09;5030409;28;8780;-74
2022/03/09 08:47:44;;;;;;;;;7.00;7.00;;;;;16.02;45.86;102237.63;5030729;28;8794;-74
2022/03/09 08:50:12;;;;;;;;;9.75;6.00;;;;;16.01;45.87;102237.59;5030361;28;8791;-74
2022/03/09 08:52:40;;;;;;;;;7.00;7.00;;;;;16.04;45.79;102232.41;5030549;28;9692;-74
2022/03/09 08:55:06;;;;;;;;;5.75;5.75;;;;;16.04;45.89;102232.41;5030956;28;9815;-74
2022/03/09 08:57:31;;;;;;;;;7.00;6.00;;;;;16.03;45.57;102227.97;5030060;28;9713;-73
2022/03/09 08:59:57;;;;;;;;;6.00;6.00;;;;;16.05;45.75;102231.50;5030866;28;8795;-74
2022/03/09 09:02:23;;;;;;;;;5.00;4.00;;;;;16.07;45.49;102224.56;5030994;28;8838;-74
2022/03/09 09:04:48;;;;;;;;;8.50;7.50;;;;;16.06;45.50;102228.03;5029746;28;8767;-76
2022/03/09 09:07:14;;;;;;;;;7.25;6.00;;;;;16.08;45.46;102223.69;5030889;28;8759;-74
2022/03/09 09:09:39;;;;;;;;;5.00;5.00;;;;;16.06;45.15;102231.56;5030663;28;8779;-75
2022/03/09 09:12:04;;;;;;;;;7.00;7.00;;;;;16.06;45.41;102231.56;5029642;28;8779;-75
2022/03/09 09:14:32;;;;;;;;;8.00;7.00;;;;;16.10;45.10;102236.03;5030400;28;8804;-74
2022/03/09 09:16:58;;;;;;;;;4.00;4.00;;;;;16.11;44.91;102222.03;5030744;28;8846;-75
2022/03/09 09:19:43;;;;;;;;;6.00;6.00;;;;;16.12;45.02;102222.91;5030074;28;9875;-75
2022/03/09 09:22:09;;;;;;;;;6.50;6.50;;;;;16.13;44.99;102229.94;5030545;28;8917;-74
2022/03/09 09:24:34;;;;;;;;;5.00;5.00;;;;;16.12;44.86;102229.03;5030776;28;10061;-73
2022/03/09 09:26:59;;;;;;;;;7.00;4.00;;;;;16.18;44.69;102241.47;5033313;28;8825;-75
2022/03/09 09:29:25;;;;;;;;;5.00;4.25;;;;;16.14;44.67;102226.44;5032890;28;8763;-74
2022/03/09 09:31:50;;;;;;;;;7.00;7.00;;;;;16.22;44.80;102243.31;5034519;28;8779;-74
2022/03/09 09:34:16;;;;;;;;;6.00;5.00;;;;;16.20;44.68;102242.38;5033788;28;8821;-73
2022/03/09 09:36:45;;;;;;;;;7.75;6.25;;;;;16.18;44.25;102234.47;5034232;28;8772;-73
2022/03/09 09:39:13;;;;;;;;;5.25;5.25;;;;;16.24;44.51;102236.31;5034189;28;8794;-74
2022/03/09 09:41:41;;;;;;;;;6.00;5.00;;;;;16.32;44.10;102233.00;5033794;28;9554;-74
2022/03/09 09:44:07;;;;;;;;;4.00;4.00;;;;;16.35;44.37;102227.78;5034552;28;9784;-74
2022/03/09 09:46:35;;;;;;;;;5.00;5.00;;;;;16.40;43.89;102228.75;5033560;28;10913;-73
2022/03/09 09:49:00;;;;;;;;;6.75;6.75;;;;;16.42;43.87;102234.94;5034357;28;9714;-74
2022/03/09 09:51:26;;;;;;;;;5.25;4.75;;;;;16.40;44.16;102230.50;5033948;28;9691;-76
2022/03/09 09:53:51;;;;;;;;;5.00;5.00;;;;;16.39;43.89;102219.06;5033509;28;8841;-75
2022/03/09 09:56:20;;;;;;;;;5.50;4.00;;;;;16.44;43.84;102230.59;5034430;28;8795;-74
2022/03/09 09:58:49;;;;;;;;;6.50;6.50;;;;;16.46;43.61;102227.13;5033876;28;9534;-75
2022/03/09 10:01:15;;;;;;;;;7.50;7.50;;;;;16.47;43.81;102236.78;5033455;28;9672;-74
2022/03/09 10:03:40;;;;;;;;;3.75;3.00;;;;;16.43;43.80;102222.66;5033878;28;9892;-74
2022/03/09 10:06:06;;;;;;;;;6.75;6.75;;;;;16.44;43.80;102221.81;5033770;28;8787;-73
2022/03/09 10:08:31;;;;;;;;;7.75;6.00;;;;;16.48;43.61;102233.28;5033359;28;8787;-74
2022/03/09 10:11:01;;;;;;;;;4.75;4.00;;;;;16.47;43.63;102236.78;5034067;28;8803;-75
2022/03/09 10:13:31;;;;;;;;;4.00;4.00;;;;;16.46;43.49;102235.88;5037044;28;9555;-74
2022/03/09 10:16:11;;;;;;;;;6.75;6.75;;;;;16.48;43.54;102234.19;5053738;28;9742;-73
2022/03/09 10:18:37;;;;;;;;;7.00;7.00;;;;;16.49;43.48;102233.34;5043312;28;9961;-73
2022/03/09 10:21:14;;;;;;;;;5.50;5.00;;;;;16.45;43.55;102234.13;5037289;28;9652;-72
2022/03/09 10:23:52;;;;;;;;;7.75;7.75;;;;;16.49;43.83;102235.09;5032784;28;8779;-74
2022/03/09 10:26:18;;;;;;;;;4.50;4.50;;;;;16.52;43.78;102236.03;5033619;28;9906;-73
2022/03/09 10:29:05;;;;;;;;;8.25;8.00;;;;;16.51;43.38;102228.06;5032710;28;9787;-74
2022/03/09 10:31:36;;;;;;;;;7.00;7.00;;;;;16.43;43.93;102220.91;5033334;28;9949;-75
2022/03/09 10:34:09;;;;;;;;;7.50;7.00;;;;;16.47;43.89;102227.13;5033389;28;10063;-72
2022/03/09 10:36:35;;;;;;;;;5.50;4.25;;;;;16.47;43.50;102237.69;5032305;28;10393;-74
2022/03/09 10:39:14;;;;;;;;;8.50;6.50;;;;;16.54;43.70;102236.03;5033347;28;10154;-74
2022/03/09 10:41:39;;;;;;;;;8.25;8.25;;;;;16.52;43.47;102237.78;5032473;28;8887;-73
2022/03/09 10:44:05;;;;;;;;;8.75;8.75;;;;;16.53;43.65;102242.19;5032864;28;9894;-74
2022/03/09 10:46:50;;;;;;;;;8.00;7.50;;;;;16.52;43.71;102248.31;5033191;28;8783;-74
2022/03/09 10:49:25;;;;;;;;;8.75;7.50;;;;;16.54;43.64;102254.50;5033361;28;8793;-74
2022/03/09 10:51:52;;;;;;;;;9.00;7.00;;;;;16.54;43.44;102246.59;5032523;28;9886;-74
2022/03/09 10:54:22;;;;;;;;;8.00;8.00;;;;;16.53;43.70;102240.44;5033247;28;10045;-73
2022/03/09 10:56:48;;;;;;;;;8.50;8.00;;;;;16.52;43.79;102233.38;5032093;28;9980;-74
2022/03/09 10:59:16;;;;;;;;;9.00;8.00;;;;;16.55;43.65;102240.47;5033018;28;10031;-74
2022/03/09 11:01:51;;;;;;;;;8.75;8.75;;;;;16.56;43.61;102242.25;5043186;28;8791;-73
2022/03/09 11:04:18;;;;;;;;;7.25;6.50;;;;;16.54;43.52;102231.66;5046294;28;9867;-74
2022/03/09 11:06:46;;;;;;;;;5.00;5.00;;;;;16.56;43.67;102237.91;5042651;28;9800;-74
2022/03/09 11:09:18;;;;;;;;;7.00;7.00;;;;;16.57;43.63;102250.19;5036257;28;9640;-73
2022/03/09 11:11:46;;;;;;;;;7.50;7.50;;;;;16.59;43.75;102250.25;5031848;28;9892;-74
2022/03/09 11:14:13;;;;;;;;;7.00;7.00;;;;;16.59;43.88;102243.22;5032266;28;9841;-73
2022/03/09 11:16:39;;;;;;;;;6.75;5.25;;;;;16.59;43.70;102243.22;5032313;28;9863;-73
2022/03/09 11:19:05;;;;;;;;;7.00;7.00;;;;;16.61;43.55;102235.38;5031952;28;9868;-74
2022/03/09 11:21:30;;;;;;;;;8.25;7.75;;;;;16.60;43.86;102228.31;5032372;28;9857;-73
2022/03/09 11:23:56;;;;;;;;;11.75;9.50;;;;;16.60;43.86;102228.31;5032536;28;8789;-74
2022/03/09 11:26:28;;;;;;;;;8.00;5.50;;;;;16.56;43.78;102218.53;5031845;28;8898;-73
2022/03/09 11:29:06;;;;;;;;;9.50;9.50;;;;;16.59;43.84;102222.13;5032540;28;9980;-74
2022/03/09 11:31:52;;;;;;;;;9.00;9.00;;;;;16.61;43.63;102223.03;5031797;28;9947;-73